sensor_id;sensor_type;location;lat;lon;timestamp;pressure;altitude;pressure_sealevel;temperature;humidity
55470;BME280;41334;47.872;16.384;2024-01-27T00:00:53;99889.91;;;3.83;46.25
55470;BME280;41334;47.872;16.384;2024-01-27T00:05:55;99912.91;;;3.58;45.94
55470;BME280;41334;47.872;16.384;2024-01-27T00:10:57;99916.75;;;3.67;46.44
55470;BME280;41334;47.872;16.384;2024-01-27T00:15:59;99907.13;;;3.59;46.08
55470;BME280;41334;47.872;16.384;2024-01-27T00:21:01;99916.38;;;3.89;45.44
55470;BME280;41334;47.872;16.384;2024-01-27T00:26:04;99919.50;;;3.67;44.85
55470;BME280;41334;47.872;16.384;2024-01-27T00:31:06;99941.19;;;3.94;45.42
55470;BME280;41334;47.872;16.384;2024-01-27T00:36:10;99958.38;;;3.76;46.12
55470;BME280;41334;47.872;16.384;2024-01-27T00:41:18;99953.94;;;3.75;47.48
55470;BME280;41334;47.872;16.384;2024-01-27T00:46:20;99942.97;;;3.64;46.78
55470;BME280;41334;47.872;16.384;2024-01-27T00:51:23;99937.16;;;3.71;48.53
55470;BME280;41334;47.872;16.384;2024-01-27T00:56:25;99945.94;;;3.73;49.45
55470;BME280;41334;47.872;16.384;2024-01-27T01:01:27;99953.44;;;3.62;49.67
55470;BME280;41334;47.872;16.384;2024-01-27T01:06:29;99971.69;;;3.38;49.95
55470;BME280;41334;47.872;16.384;2024-01-27T01:11:31;99979.09;;;3.48;49.61
55470;BME280;41334;47.872;16.384;2024-01-27T01:16:33;99962.50;;;3.68;49.11
55470;BME280;41334;47.872;16.384;2024-01-27T01:21:35;99983.81;;;3.37;49.75
55470;BME280;41334;47.872;16.384;2024-01-27T01:26:37;99978.56;;;3.40;49.75
55470;BME280;41334;47.872;16.384;2024-01-27T01:31:44;99996.72;;;3.62;49.43
55470;BME280;41334;47.872;16.384;2024-01-27T01:36:46;99996.22;;;3.55;49.07
55470;BME280;41334;47.872;16.384;2024-01-27T01:41:49;100034.50;;;3.66;49.36
55470;BME280;41334;47.872;16.384;2024-01-27T01:46:51;100033.41;;;3.57;49.69
55470;BME280;41334;47.872;16.384;2024-01-27T01:51:53;100043.91;;;3.40;49.90
55470;BME280;41334;47.872;16.384;2024-01-27T01:56:58;100026.53;;;3.55;49.50
55470;BME280;41334;47.872;16.384;2024-01-27T02:02:00;100051.91;;;3.57;48.91
55470;BME280;41334;47.872;16.384;2024-01-27T02:07:02;100047.22;;;3.47;49.63
55470;BME280;41334;47.872;16.384;2024-01-27T02:12:05;100047.22;;;3.37;49.30
55470;BME280;41334;47.872;16.384;2024-01-27T02:17:07;100052.19;;;3.25;49.51
55470;BME280;41334;47.872;16.384;2024-01-27T02:22:09;100056.31;;;3.07;49.79
55470;BME280;41334;47.872;16.384;2024-01-27T02:27:11;100056.31;;;3.42;49.43
55470;BME280;41334;47.872;16.384;2024-01-27T02:32:14;100072.59;;;3.44;49.16
55470;BME280;41334;47.872;16.384;2024-01-27T02:37:17;100082.75;;;3.08;49.52
55470;BME280;41334;47.872;16.384;2024-01-27T02:42:20;100083.88;;;3.12;48.63
55470;BME280;41334;47.872;16.384;2024-01-27T02:47:22;100086.09;;;3.25;48.43
55470;BME280;41334;47.872;16.384;2024-01-27T02:52:24;100089.41;;;3.17;48.08
55470;BME280;41334;47.872;16.384;2024-01-27T02:57:29;100115.03;;;3.12;48.39
55470;BME280;41334;47.872;16.384;2024-01-27T03:02:31;100137.25;;;2.80;48.35
55470;BME280;41334;47.872;16.384;2024-01-27T03:07:33;100144.75;;;2.95;48.16
55470;BME280;41334;47.872;16.384;2024-01-27T03:12:35;100152.16;;;3.00;48.35
55470;BME280;41334;47.872;16.384;2024-01-27T03:17:37;100158.50;;;2.90;48.57
55470;BME280;41334;47.872;16.384;2024-01-27T03:22:40;100164.03;;;2.95;48.90
55470;BME280;41334;47.872;16.384;2024-01-27T03:27:44;100176.38;;;2.82;48.66
55470;BME280;41334;47.872;16.384;2024-01-27T03:32:46;100187.38;;;2.82;48.74
55470;BME280;41334;47.872;16.384;2024-01-27T03:37:49;100206.38;;;2.84;48.03
55470;BME280;41334;47.872;16.384;2024-01-27T03:42:51;100197.34;;;2.93;47.94
55470;BME280;41334;47.872;16.384;2024-01-27T03:47:53;100225.63;;;2.69;48.31
55470;BME280;41334;47.872;16.384;2024-01-27T03:52:58;100230.06;;;2.75;47.90
55470;BME280;41334;47.872;16.384;2024-01-27T03:58:00;100238.75;;;3.14;47.18
55470;BME280;41334;47.872;16.384;2024-01-27T04:03:02;100238.13;;;2.91;47.47
55470;BME280;41334;47.872;16.384;2024-01-27T04:08:04;100257.13;;;2.93;47.17
55470;BME280;41334;47.872;16.384;2024-01-27T04:13:09;100257.97;;;2.99;47.32
55470;BME280;41334;47.872;16.384;2024-01-27T04:18:11;100243.94;;;3.05;47.23
55470;BME280;41334;47.872;16.384;2024-01-27T04:23:14;100236.19;;;2.92;47.92
55470;BME280;41334;47.872;16.384;2024-01-27T04:28:18;100255.25;;;3.04;47.26
55470;BME280;41334;47.872;16.384;2024-01-27T04:33:21;100253.22;;;2.84;47.67
55470;BME280;41334;47.872;16.384;2024-01-27T04:38:23;100240.84;;;2.86;47.50
55470;BME280;41334;47.872;16.384;2024-01-27T04:43:25;100269.28;;;2.50;48.12
55470;BME280;41334;47.872;16.384;2024-01-27T04:48:27;100258.19;;;2.87;47.39
55470;BME280;41334;47.872;16.384;2024-01-27T04:53:29;100267.72;;;2.64;47.39
55470;BME280;41334;47.872;16.384;2024-01-27T04:58:31;100260.19;;;2.49;47.83
55470;BME280;41334;47.872;16.384;2024-01-27T05:03:33;100273.41;;;2.47;47.90
55470;BME280;41334;47.872;16.384;2024-01-27T05:08:36;100263.44;;;2.46;48.08
55470;BME280;41334;47.872;16.384;2024-01-27T05:13:40;100258.94;;;2.35;48.61
55470;BME280;41334;47.872;16.384;2024-01-27T05:18:42;100254.22;;;2.30;48.77
55470;BME280;41334;47.872;16.384;2024-01-27T05:23:44;100262.44;;;2.25;48.04
55470;BME280;41334;47.872;16.384;2024-01-27T05:28:46;100251.28;;;2.37;48.26
55470;BME280;41334;47.872;16.384;2024-01-27T05:33:48;100237.16;;;2.28;48.97
55470;BME280;41334;47.872;16.384;2024-01-27T05:38:53;100233.69;;;2.38;48.77
55470;BME280;41334;47.872;16.384;2024-01-27T05:43:55;100244.63;;;2.33;48.80
55470;BME280;41334;47.872;16.384;2024-01-27T05:48:58;100251.38;;;2.47;48.50
55470;BME280;41334;47.872;16.384;2024-01-27T05:54:04;100259.56;;;2.37;48.37
55470;BME280;41334;47.872;16.384;2024-01-27T05:59:10;100266.47;;;2.45;48.28
55470;BME280;41334;47.872;16.384;2024-01-27T06:04:12;100271.00;;;2.29;48.80
55470;BME280;41334;47.872;16.384;2024-01-27T06:09:18;100282.84;;;2.29;48.79
55470;BME280;41334;47.872;16.384;2024-01-27T06:14:20;100279.00;;;2.30;48.98
55470;BME280;41334;47.872;16.384;2024-01-27T06:19:22;100286.88;;;1.84;49.67
55470;BME280;41334;47.872;16.384;2024-01-27T06:24:27;100297.88;;;2.17;48.88
55470;BME280;41334;47.872;16.384;2024-01-27T06:29:29;100316.31;;;2.16;48.94
55470;BME280;41334;47.872;16.384;2024-01-27T06:34:32;100309.22;;;2.25;48.96
55470;BME280;41334;47.872;16.384;2024-01-27T06:39:34;100310.78;;;1.84;49.71
55470;BME280;41334;47.872;16.384;2024-01-27T06:44:36;100326.50;;;2.16;49.13
55470;BME280;41334;47.872;16.384;2024-01-27T06:49:38;100323.94;;;2.09;48.97
55470;BME280;41334;47.872;16.384;2024-01-27T06:54:40;100317.41;;;2.15;48.14
55470;BME280;41334;47.872;16.384;2024-01-27T06:59:51;100337.56;;;1.94;48.21
55470;BME280;41334;47.872;16.384;2024-01-27T07:04:58;100319.41;;;2.25;47.58
55470;BME280;41334;47.872;16.384;2024-01-27T07:10:00;100318.78;;;2.45;47.21
55470;BME280;41334;47.872;16.384;2024-01-27T07:15:02;100323.84;;;1.99;47.54
55470;BME280;41334;47.872;16.384;2024-01-27T07:20:07;100334.63;;;2.64;46.49
55470;BME280;41334;47.872;16.384;2024-01-27T07:25:09;100332.69;;;2.33;46.61
55470;BME280;41334;47.872;16.384;2024-01-27T07:30:12;100352.13;;;2.48;47.16
55470;BME280;41334;47.872;16.384;2024-01-27T07:35:14;100338.28;;;2.75;46.77
55470;BME280;41334;47.872;16.384;2024-01-27T07:40:17;100364.81;;;2.49;47.28
55470;BME280;41334;47.872;16.384;2024-01-27T07:45:19;100353.75;;;2.81;46.81
55470;BME280;41334;47.872;16.384;2024-01-27T07:50:21;100343.09;;;2.53;46.75
55470;BME280;41334;47.872;16.384;2024-01-27T07:55:36;100351.63;;;2.56;46.89
55470;BME280;41334;47.872;16.384;2024-01-27T08:00:38;100331.13;;;2.74;46.34
55470;BME280;41334;47.872;16.384;2024-01-27T08:05:56;100336.56;;;3.06;45.87
55470;BME280;41334;47.872;16.384;2024-01-27T08:11:01;100350.25;;;2.91;45.69
55470;BME280;41334;47.872;16.384;2024-01-27T08:16:04;100346.94;;;2.94;45.82
55470;BME280;41334;47.872;16.384;2024-01-27T08:21:08;100367.59;;;3.39;44.97
55470;BME280;41334;47.872;16.384;2024-01-27T08:26:12;100371.41;;;3.28;45.37
55470;BME280;41334;47.872;16.384;2024-01-27T08:31:14;100398.16;;;3.27;44.77
55470;BME280;41334;47.872;16.384;2024-01-27T08:36:16;100402.38;;;3.45;44.53
55470;BME280;41334;47.872;16.384;2024-01-27T08:41:18;100377.25;;;3.41;44.28
55470;BME280;41334;47.872;16.384;2024-01-27T08:46:20;100403.72;;;3.42;44.29
55470;BME280;41334;47.872;16.384;2024-01-27T08:51:24;100406.34;;;3.69;43.82
55470;BME280;41334;47.872;16.384;2024-01-27T08:56:26;100411.56;;;3.61;44.55
55470;BME280;41334;47.872;16.384;2024-01-27T09:01:28;100407.66;;;3.57;43.93
55470;BME280;41334;47.872;16.384;2024-01-27T09:06:30;100406.25;;;3.49;43.77
55470;BME280;41334;47.872;16.384;2024-01-27T09:11:33;100382.25;;;3.44;43.86
55470;BME280;41334;47.872;16.384;2024-01-27T09:16:36;100397.75;;;3.61;43.42
55470;BME280;41334;47.872;16.384;2024-01-27T09:21:37;100393.97;;;3.82;43.10
55470;BME280;41334;47.872;16.384;2024-01-27T09:26:40;100407.28;;;4.06;42.79
55470;BME280;41334;47.872;16.384;2024-01-27T09:31:42;100413.66;;;4.11;42.93
55470;BME280;41334;47.872;16.384;2024-01-27T09:36:43;100415.34;;;4.17;42.80
55470;BME280;41334;47.872;16.384;2024-01-27T09:41:48;100408.78;;;4.39;42.46
55470;BME280;41334;47.872;16.384;2024-01-27T09:46:50;100431.53;;;3.93;41.98
55470;BME280;41334;47.872;16.384;2024-01-27T09:51:52;100445.16;;;4.20;41.87
55470;BME280;41334;47.872;16.384;2024-01-27T09:56:55;100426.47;;;4.48;41.20
55470;BME280;41334;47.872;16.384;2024-01-27T10:01:58;100429.81;;;4.60;41.63
55470;BME280;41334;47.872;16.384;2024-01-27T10:07:01;100416.81;;;4.56;40.99
55470;BME280;41334;47.872;16.384;2024-01-27T10:12:04;100432.28;;;4.57;41.32
55470;BME280;41334;47.872;16.384;2024-01-27T10:17:11;100454.38;;;4.46;40.69
55470;BME280;41334;47.872;16.384;2024-01-27T10:22:13;100460.50;;;4.84;40.11
55470;BME280;41334;47.872;16.384;2024-01-27T10:27:16;100474.84;;;5.27;39.85
55470;BME280;41334;47.872;16.384;2024-01-27T10:32:21;100469.06;;;4.88;39.83
55470;BME280;41334;47.872;16.384;2024-01-27T10:37:25;100461.03;;;4.86;39.81
55470;BME280;41334;47.872;16.384;2024-01-27T10:42:28;100459.59;;;4.48;39.57
55470;BME280;41334;47.872;16.384;2024-01-27T10:47:32;100447.22;;;5.12;39.83
55470;BME280;41334;47.872;16.384;2024-01-27T10:52:39;100455.53;;;4.71;40.03
55470;BME280;41334;47.872;16.384;2024-01-27T10:57:44;100458.25;;;4.56;39.29
55470;BME280;41334;47.872;16.384;2024-01-27T11:02:47;100473.75;;;4.67;40.34
55470;BME280;41334;47.872;16.384;2024-01-27T11:07:58;100469.84;;;4.63;39.40
55470;BME280;41334;47.872;16.384;2024-01-27T11:13:02;100479.28;;;4.87;39.63
55470;BME280;41334;47.872;16.384;2024-01-27T11:18:05;100479.03;;;5.09;39.88
55470;BME280;41334;47.872;16.384;2024-01-27T11:23:13;100482.03;;;5.08;39.85
55470;BME280;41334;47.872;16.384;2024-01-27T11:28:16;100488.97;;;4.90;40.27
55470;BME280;41334;47.872;16.384;2024-01-27T11:33:18;100471.25;;;4.75;40.29
55470;BME280;41334;47.872;16.384;2024-01-27T11:38:20;100454.09;;;4.58;40.29
55470;BME280;41334;47.872;16.384;2024-01-27T11:43:23;100445.25;;;5.22;39.95
55470;BME280;41334;47.872;16.384;2024-01-27T11:48:25;100441.69;;;4.71;40.10
55470;BME280;41334;47.872;16.384;2024-01-27T11:53:27;100432.84;;;4.79;40.63
55470;BME280;41334;47.872;16.384;2024-01-27T11:58:30;100425.66;;;5.14;39.28
55470;BME280;41334;47.872;16.384;2024-01-27T12:03:32;100411.03;;;4.67;39.27
55470;BME280;41334;47.872;16.384;2024-01-27T12:08:35;100402.16;;;4.96;38.86
55470;BME280;41334;47.872;16.384;2024-01-27T12:13:37;100417.63;;;5.07;38.73
55470;BME280;41334;47.872;16.384;2024-01-27T12:18:39;100414.25;;;5.41;38.76
55470;BME280;41334;47.872;16.384;2024-01-27T12:23:52;100418.47;;;5.02;38.57
55470;BME280;41334;47.872;16.384;2024-01-27T12:28:56;100421.75;;;5.25;38.57
55470;BME280;41334;47.872;16.384;2024-01-27T12:34:00;100425.38;;;5.10;38.90
55470;BME280;41334;47.872;16.384;2024-01-27T12:39:03;100435.31;;;4.81;38.47
55470;BME280;41334;47.872;16.384;2024-01-27T12:44:08;100430.66;;;4.71;38.27
55470;BME280;41334;47.872;16.384;2024-01-27T12:49:10;100436.41;;;5.31;38.19
55470;BME280;41334;47.872;16.384;2024-01-27T12:54:13;100453.25;;;5.29;37.45
55470;BME280;41334;47.872;16.384;2024-01-27T12:59:16;100443.28;;;5.38;37.35
55470;BME280;41334;47.872;16.384;2024-01-27T13:04:18;100407.44;;;5.02;36.66
55470;BME280;41334;47.872;16.384;2024-01-27T13:09:20;100424.53;;;5.25;36.49
55470;BME280;41334;47.872;16.384;2024-01-27T13:14:23;100413.47;;;5.30;36.92
55470;BME280;41334;47.872;16.384;2024-01-27T13:19:27;100421.22;;;5.13;36.64
55470;BME280;41334;47.872;16.384;2024-01-27T13:24:29;100426.75;;;5.13;36.78
55470;BME280;41334;47.872;16.384;2024-01-27T13:29:31;100416.81;;;4.91;36.32
55470;BME280;41334;47.872;16.384;2024-01-27T13:34:34;100401.31;;;5.11;37.02
55470;BME280;41334;47.872;16.384;2024-01-27T13:39:37;100409.09;;;4.93;36.52
55470;BME280;41334;47.872;16.384;2024-01-27T13:44:39;100404.38;;;5.14;36.59
55470;BME280;41334;47.872;16.384;2024-01-27T13:49:42;100395.56;;;4.87;36.77
55470;BME280;41334;47.872;16.384;2024-01-27T13:54:44;100416.78;;;5.07;36.09
55470;BME280;41334;47.872;16.384;2024-01-27T13:59:46;100417.88;;;5.31;36.42
55470;BME280;41334;47.872;16.384;2024-01-27T14:04:48;100422.06;;;4.93;36.35
55470;BME280;41334;47.872;16.384;2024-01-27T14:09:50;100437.84;;;4.82;36.83
55470;BME280;41334;47.872;16.384;2024-01-27T14:14:52;100449.13;;;4.75;37.11
55470;BME280;41334;47.872;16.384;2024-01-27T14:19:55;100447.78;;;4.83;37.01
55470;BME280;41334;47.872;16.384;2024-01-27T14:24:58;100451.09;;;4.80;37.24
55470;BME280;41334;47.872;16.384;2024-01-27T14:30:00;100474.88;;;4.76;37.11
55470;BME280;41334;47.872;16.384;2024-01-27T14:35:03;100476.78;;;4.60;37.65
55470;BME280;41334;47.872;16.384;2024-01-27T14:40:10;100480.06;;;4.52;38.10
55470;BME280;41334;47.872;16.384;2024-01-27T14:45:12;100488.28;;;4.27;38.41
55470;BME280;41334;47.872;16.384;2024-01-27T14:50:15;100482.00;;;4.57;38.62
55470;BME280;41334;47.872;16.384;2024-01-27T14:55:17;100499.06;;;4.38;38.58
55470;BME280;41334;47.872;16.384;2024-01-27T15:00:19;100492.84;;;4.06;39.40
55470;BME280;41334;47.872;16.384;2024-01-27T15:05:21;100499.03;;;4.23;39.12
55470;BME280;41334;47.872;16.384;2024-01-27T15:10:26;100502.28;;;4.15;39.08
55470;BME280;41334;47.872;16.384;2024-01-27T15:15:28;100495.06;;;4.04;39.28
55470;BME280;41334;47.872;16.384;2024-01-27T15:20:31;100505.94;;;3.73;39.77
55470;BME280;41334;47.872;16.384;2024-01-27T15:25:33;100507.31;;;3.70;40.12
55470;BME280;41334;47.872;16.384;2024-01-27T15:30:35;100506.28;;;3.39;40.54
55470;BME280;41334;47.872;16.384;2024-01-27T15:35:37;100510.03;;;3.60;41.25
55470;BME280;41334;47.872;16.384;2024-01-27T15:40:42;100510.91;;;3.29;41.34
55470;BME280;41334;47.872;16.384;2024-01-27T15:45:44;100520.91;;;3.40;41.21
55470;BME280;41334;47.872;16.384;2024-01-27T15:50:46;100531.03;;;2.97;41.78
55470;BME280;41334;47.872;16.384;2024-01-27T15:55:49;100523.72;;;3.13;41.70
55470;BME280;41334;47.872;16.384;2024-01-27T16:00:52;100532.56;;;3.15;41.94
55470;BME280;41334;47.872;16.384;2024-01-27T16:05:55;100535.16;;;3.00;42.45
55470;BME280;41334;47.872;16.384;2024-01-27T16:10:57;100539.56;;;2.96;42.11
55470;BME280;41334;47.872;16.384;2024-01-27T16:15:59;100555.72;;;2.87;42.47
55470;BME280;41334;47.872;16.384;2024-01-27T16:21:02;100562.44;;;2.96;42.24
55470;BME280;41334;47.872;16.384;2024-01-27T16:26:04;100573.09;;;2.87;42.39
55470;BME280;41334;47.872;16.384;2024-01-27T16:31:07;100589.66;;;2.44;43.10
55470;BME280;41334;47.872;16.384;2024-01-27T16:36:09;100589.44;;;2.72;43.06
55470;BME280;41334;47.872;16.384;2024-01-27T16:41:11;100584.09;;;2.60;43.48
55470;BME280;41334;47.872;16.384;2024-01-27T16:46:13;100586.91;;;2.44;44.08
55470;BME280;41334;47.872;16.384;2024-01-27T16:51:15;100593.59;;;2.31;43.85
55470;BME280;41334;47.872;16.384;2024-01-27T16:56:17;100597.03;;;2.38;43.86
55470;BME280;41334;47.872;16.384;2024-01-27T17:01:19;100593.31;;;2.49;44.01
55470;BME280;41334;47.872;16.384;2024-01-27T17:06:21;100596.63;;;2.51;44.20
55470;BME280;41334;47.872;16.384;2024-01-27T17:11:23;100614.56;;;2.32;44.30
55470;BME280;41334;47.872;16.384;2024-01-27T17:16:26;100623.84;;;2.26;44.80
55470;BME280;41334;47.872;16.384;2024-01-27T17:21:28;100628.81;;;2.29;44.47
55470;BME280;41334;47.872;16.384;2024-01-27T17:26:30;100641.19;;;2.09;44.85
55470;BME280;41334;47.872;16.384;2024-01-27T17:31:33;100633.34;;;2.18;44.58
55470;BME280;41334;47.872;16.384;2024-01-27T17:36:36;100639.72;;;2.02;45.02
55470;BME280;41334;47.872;16.384;2024-01-27T17:41:38;100642.16;;;2.20;45.09
55470;BME280;41334;47.872;16.384;2024-01-27T17:46:42;100641.78;;;2.11;45.09
55470;BME280;41334;47.872;16.384;2024-01-27T17:51:44;100662.78;;;2.18;44.93
55470;BME280;41334;47.872;16.384;2024-01-27T17:56:49;100655.34;;;2.18;45.06
55470;BME280;41334;47.872;16.384;2024-01-27T18:01:57;100657.28;;;2.18;44.71
55470;BME280;41334;47.872;16.384;2024-01-27T18:06:59;100664.31;;;2.30;44.66
55470;BME280;41334;47.872;16.384;2024-01-27T18:12:01;100658.88;;;1.97;45.12
55470;BME280;41334;47.872;16.384;2024-01-27T18:17:05;100669.31;;;1.95;45.31
55470;BME280;41334;47.872;16.384;2024-01-27T18:22:08;100648.47;;;2.16;44.83
55470;BME280;41334;47.872;16.384;2024-01-27T18:27:12;100645.94;;;2.14;45.06
55470;BME280;41334;47.872;16.384;2024-01-27T18:32:16;100658.38;;;2.17;45.22
55470;BME280;41334;47.872;16.384;2024-01-27T18:37:18;100663.47;;;2.08;45.64
55470;BME280;41334;47.872;16.384;2024-01-27T18:42:20;100686.56;;;2.07;45.51
55470;BME280;41334;47.872;16.384;2024-01-27T18:47:22;100703.09;;;1.90;45.92
55470;BME280;41334;47.872;16.384;2024-01-27T18:52:29;100701.16;;;1.74;46.19
55470;BME280;41334;47.872;16.384;2024-01-27T18:57:35;100691.44;;;1.83;45.81
55470;BME280;41334;47.872;16.384;2024-01-27T19:02:37;100716.41;;;1.98;45.57
55470;BME280;41334;47.872;16.384;2024-01-27T19:07:39;100723.25;;;1.96;45.57
55470;BME280;41334;47.872;16.384;2024-01-27T19:12:42;100719.50;;;1.85;46.14
55470;BME280;41334;47.872;16.384;2024-01-27T19:17:44;100718.94;;;2.00;45.77
55470;BME280;41334;47.872;16.384;2024-01-27T19:22:47;100719.75;;;2.00;45.51
55470;BME280;41334;47.872;16.384;2024-01-27T19:27:53;100734.09;;;2.02;45.75
55470;BME280;41334;47.872;16.384;2024-01-27T19:32:59;100760.25;;;1.88;45.88
55470;BME280;41334;47.872;16.384;2024-01-27T19:38:01;100752.69;;;1.95;45.70
55470;BME280;41334;47.872;16.384;2024-01-27T19:43:06;100753.59;;;1.84;45.99
55470;BME280;41334;47.872;16.384;2024-01-27T19:48:07;100767.75;;;1.93;45.91
55470;BME280;41334;47.872;16.384;2024-01-27T19:53:12;100760.50;;;1.86;46.04
55470;BME280;41334;47.872;16.384;2024-01-27T19:58:18;100773.97;;;1.71;46.25
55470;BME280;41334;47.872;16.384;2024-01-27T20:03:23;100771.50;;;1.86;45.92
55470;BME280;41334;47.872;16.384;2024-01-27T20:08:25;100761.97;;;1.77;46.29
55470;BME280;41334;47.872;16.384;2024-01-27T20:13:27;100767.34;;;1.84;46.22
55470;BME280;41334;47.872;16.384;2024-01-27T20:18:30;100779.34;;;1.78;46.12
55470;BME280;41334;47.872;16.384;2024-01-27T20:23:33;100792.31;;;1.66;46.54
55470;BME280;41334;47.872;16.384;2024-01-27T20:28:35;100793.56;;;1.75;46.31
55470;BME280;41334;47.872;16.384;2024-01-27T20:33:37;100795.75;;;1.73;46.41
55470;BME280;41334;47.872;16.384;2024-01-27T20:38:51;100805.06;;;1.72;46.31
55470;BME280;41334;47.872;16.384;2024-01-27T20:43:54;100814.00;;;1.79;46.02
55470;BME280;41334;47.872;16.384;2024-01-27T20:48:58;100817.28;;;1.93;45.84
55470;BME280;41334;47.872;16.384;2024-01-27T20:54:01;100822.75;;;1.76;46.31
55470;BME280;41334;47.872;16.384;2024-01-27T20:59:03;100818.53;;;1.85;46.25
55470;BME280;41334;47.872;16.384;2024-01-27T21:04:06;100832.38;;;1.90;46.01
55470;BME280;41334;47.872;16.384;2024-01-27T21:09:09;100834.19;;;1.84;46.05
55470;BME280;41334;47.872;16.384;2024-01-27T21:14:12;100844.50;;;1.77;46.11
55470;BME280;41334;47.872;16.384;2024-01-27T21:19:14;100844.94;;;1.86;45.89
55470;BME280;41334;47.872;16.384;2024-01-27T21:24:17;100850.78;;;1.90;45.82
55470;BME280;41334;47.872;16.384;2024-01-27T21:29:19;100870.06;;;1.90;45.61
55470;BME280;41334;47.872;16.384;2024-01-27T21:34:21;100861.97;;;1.71;45.94
55470;BME280;41334;47.872;16.384;2024-01-27T21:39:23;100877.91;;;1.69;45.91
55470;BME280;41334;47.872;16.384;2024-01-27T21:44:28;100876.97;;;1.64;45.85
55470;BME280;41334;47.872;16.384;2024-01-27T21:49:30;100880.47;;;1.47;46.63
55470;BME280;41334;47.872;16.384;2024-01-27T21:54:32;100883.81;;;1.49;46.54
55470;BME280;41334;47.872;16.384;2024-01-27T21:59:34;100882.44;;;1.35;46.80
55470;BME280;41334;47.872;16.384;2024-01-27T22:04:37;100890.81;;;1.17;47.15
55470;BME280;41334;47.872;16.384;2024-01-27T22:09:39;100888.53;;;1.14;47.51
55470;BME280;41334;47.872;16.384;2024-01-27T22:14:42;100901.44;;;1.13;47.63
55470;BME280;41334;47.872;16.384;2024-01-27T22:19:44;100897.28;;;0.99;47.92
55470;BME280;41334;47.872;16.384;2024-01-27T22:24:46;100895.25;;;0.82;48.23
55470;BME280;41334;47.872;16.384;2024-01-27T22:29:48;100886.41;;;0.69;49.12
55470;BME280;41334;47.872;16.384;2024-01-27T22:34:50;100875.41;;;0.57;48.92
55470;BME280;41334;47.872;16.384;2024-01-27T22:39:53;100882.56;;;0.81;48.74
55470;BME280;41334;47.872;16.384;2024-01-27T22:44:55;100882.13;;;0.73;48.63
55470;BME280;41334;47.872;16.384;2024-01-27T22:49:57;100880.53;;;0.53;49.31
55470;BME280;41334;47.872;16.384;2024-01-27T22:54:59;100880.53;;;0.65;49.02
55470;BME280;41334;47.872;16.384;2024-01-27T23:00:01;100884.63;;;0.63;49.02
55470;BME280;41334;47.872;16.384;2024-01-27T23:05:04;100881.38;;;0.54;49.02
55470;BME280;41334;47.872;16.384;2024-01-27T23:10:07;100885.44;;;0.40;49.58
55470;BME280;41334;47.872;16.384;2024-01-27T23:15:09;100885.38;;;0.28;50.04
55470;BME280;41334;47.872;16.384;2024-01-27T23:20:13;100894.56;;;0.22;50.45
55470;BME280;41334;47.872;16.384;2024-01-27T23:25:16;100894.78;;;0.20;50.31
55470;BME280;41334;47.872;16.384;2024-01-27T23:30:18;100904.81;;;0.26;50.63
55470;BME280;41334;47.872;16.384;2024-01-27T23:35:20;100908.41;;;0.39;50.36
55470;BME280;41334;47.872;16.384;2024-01-27T23:40:24;100923.34;;;0.43;49.78
55470;BME280;41334;47.872;16.384;2024-01-27T23:45:29;100923.91;;;0.33;50.30
55470;BME280;41334;47.872;16.384;2024-01-27T23:50:31;100915.94;;;0.32;49.75
55470;BME280;41334;47.872;16.384;2024-01-27T23:55:34;100911.97;;;0.27;50.01
